sensor_id;sensor_type;location;lat;lon;timestamp;temperature;humidity
45803;DHT22;31504;51.716;9.184;2023-11-18T00:01:45;19.40;50.80
45803;DHT22;31504;51.716;9.184;2023-11-18T00:04:45;19.40;50.90
45803;DHT22;31504;51.716;9.184;2023-11-18T00:07:46;19.30;50.80
45803;DHT22;31504;51.716;9.184;2023-11-18T00:10:46;19.30;50.70
45803;DHT22;31504;51.716;9.184;2023-11-18T00:13:47;19.30;50.70
45803;DHT22;31504;51.716;9.184;2023-11-18T00:16:48;19.30;50.70
45803;DHT22;31504;51.716;9.184;2023-11-18T00:19:49;19.40;50.70
45803;DHT22;31504;51.716;9.184;2023-11-18T00:22:50;19.30;50.60
45803;DHT22;31504;51.716;9.184;2023-11-18T00:25:51;19.40;50.60
45803;DHT22;31504;51.716;9.184;2023-11-18T00:28:52;19.30;50.50
45803;DHT22;31504;51.716;9.184;2023-11-18T00:31:53;19.30;50.50
45803;DHT22;31504;51.716;9.184;2023-11-18T00:34:53;19.30;50.50
45803;DHT22;31504;51.716;9.184;2023-11-18T00:37:54;19.30;50.40
45803;DHT22;31504;51.716;9.184;2023-11-18T00:40:54;19.30;50.40
45803;DHT22;31504;51.716;9.184;2023-11-18T00:43:55;19.30;50.40
45803;DHT22;31504;51.716;9.184;2023-11-18T00:46:56;19.30;50.40
45803;DHT22;31504;51.716;9.184;2023-11-18T00:49:57;19.30;50.40
45803;DHT22;31504;51.716;9.184;2023-11-18T00:53:02;19.30;50.40
45803;DHT22;31504;51.716;9.184;2023-11-18T00:56:02;19.30;50.40
45803;DHT22;31504;51.716;9.184;2023-11-18T00:59:08;19.30;50.40
45803;DHT22;31504;51.716;9.184;2023-11-18T01:02:08;19.30;50.30
45803;DHT22;31504;51.716;9.184;2023-11-18T01:05:09;19.30;50.30
45803;DHT22;31504;51.716;9.184;2023-11-18T01:08:11;19.30;50.30
45803;DHT22;31504;51.716;9.184;2023-11-18T01:11:17;19.30;50.90
45803;DHT22;31504;51.716;9.184;2023-11-18T01:14:22;19.30;50.30
45803;DHT22;31504;51.716;9.184;2023-11-18T01:17:23;19.30;50.30
45803;DHT22;31504;51.716;9.184;2023-11-18T01:20:24;19.30;50.20
45803;DHT22;31504;51.716;9.184;2023-11-18T01:23:24;19.30;50.30
45803;DHT22;31504;51.716;9.184;2023-11-18T01:26:25;19.30;50.20
45803;DHT22;31504;51.716;9.184;2023-11-18T01:29:25;19.30;50.20
45803;DHT22;31504;51.716;9.184;2023-11-18T01:32:26;19.30;50.20
45803;DHT22;31504;51.716;9.184;2023-11-18T01:35:26;19.30;50.10
45803;DHT22;31504;51.716;9.184;2023-11-18T01:38:27;19.30;50.10
45803;DHT22;31504;51.716;9.184;2023-11-18T01:41:27;19.30;50.10
45803;DHT22;31504;51.716;9.184;2023-11-18T01:44:29;19.30;50.20
45803;DHT22;31504;51.716;9.184;2023-11-18T01:47:33;19.30;50.10
45803;DHT22;31504;51.716;9.184;2023-11-18T01:50:33;19.30;50.20
45803;DHT22;31504;51.716;9.184;2023-11-18T01:53:34;19.30;50.10
45803;DHT22;31504;51.716;9.184;2023-11-18T01:56:35;19.30;50.10
45803;DHT22;31504;51.716;9.184;2023-11-18T01:59:36;19.30;50.10
45803;DHT22;31504;51.716;9.184;2023-11-18T02:02:38;19.30;50.10
45803;DHT22;31504;51.716;9.184;2023-11-18T02:05:38;19.30;50.00
45803;DHT22;31504;51.716;9.184;2023-11-18T02:08:39;19.30;50.00
45803;DHT22;31504;51.716;9.184;2023-11-18T02:11:43;19.30;50.00
45803;DHT22;31504;51.716;9.184;2023-11-18T02:14:45;19.30;50.00
45803;DHT22;31504;51.716;9.184;2023-11-18T02:17:46;19.30;50.00
45803;DHT22;31504;51.716;9.184;2023-11-18T02:20:48;19.30;50.00
45803;DHT22;31504;51.716;9.184;2023-11-18T02:23:49;19.30;50.00
45803;DHT22;31504;51.716;9.184;2023-11-18T02:26:51;19.30;50.00
45803;DHT22;31504;51.716;9.184;2023-11-18T02:29:51;19.30;50.00
45803;DHT22;31504;51.716;9.184;2023-11-18T02:32:59;19.30;50.00
45803;DHT22;31504;51.716;9.184;2023-11-18T02:36:05;19.30;50.00
45803;DHT22;31504;51.716;9.184;2023-11-18T02:39:08;19.30;49.90
45803;DHT22;31504;51.716;9.184;2023-11-18T02:42:12;19.30;49.90
45803;DHT22;31504;51.716;9.184;2023-11-18T02:45:13;19.30;49.90
45803;DHT22;31504;51.716;9.184;2023-11-18T02:48:17;19.30;49.90
45803;DHT22;31504;51.716;9.184;2023-11-18T02:51:18;19.30;49.90
45803;DHT22;31504;51.716;9.184;2023-11-18T02:54:18;19.30;49.90
45803;DHT22;31504;51.716;9.184;2023-11-18T02:57:20;19.20;49.90
45803;DHT22;31504;51.716;9.184;2023-11-18T03:00:20;19.20;49.90
45803;DHT22;31504;51.716;9.184;2023-11-18T03:03:23;19.20;49.90
45803;DHT22;31504;51.716;9.184;2023-11-18T03:06:24;19.20;49.80
45803;DHT22;31504;51.716;9.184;2023-11-18T03:09:25;19.20;49.80
45803;DHT22;31504;51.716;9.184;2023-11-18T03:12:27;19.20;49.80
45803;DHT22;31504;51.716;9.184;2023-11-18T03:15:28;19.20;49.70
45803;DHT22;31504;51.716;9.184;2023-11-18T03:18:29;19.20;49.70
45803;DHT22;31504;51.716;9.184;2023-11-18T03:21:29;19.20;49.70
45803;DHT22;31504;51.716;9.184;2023-11-18T03:24:30;19.20;49.70
45803;DHT22;31504;51.716;9.184;2023-11-18T03:27:30;19.20;49.70
45803;DHT22;31504;51.716;9.184;2023-11-18T03:30:31;19.20;49.70
45803;DHT22;31504;51.716;9.184;2023-11-18T03:33:31;19.20;49.70
45803;DHT22;31504;51.716;9.184;2023-11-18T03:36:32;19.20;49.70
45803;DHT22;31504;51.716;9.184;2023-11-18T03:39:33;19.20;49.70
45803;DHT22;31504;51.716;9.184;2023-11-18T03:42:33;19.20;49.60
45803;DHT22;31504;51.716;9.184;2023-11-18T03:45:36;19.20;49.60
45803;DHT22;31504;51.716;9.184;2023-11-18T03:48:38;19.20;49.50
45803;DHT22;31504;51.716;9.184;2023-11-18T03:51:38;19.20;49.60
45803;DHT22;31504;51.716;9.184;2023-11-18T03:54:39;19.20;49.50
45803;DHT22;31504;51.716;9.184;2023-11-18T03:57:39;19.20;49.50
45803;DHT22;31504;51.716;9.184;2023-11-18T04:00:40;19.20;49.60
45803;DHT22;31504;51.716;9.184;2023-11-18T04:03:40;19.20;49.60
45803;DHT22;31504;51.716;9.184;2023-11-18T04:06:42;19.20;49.60
45803;DHT22;31504;51.716;9.184;2023-11-18T04:09:43;19.20;49.50
45803;DHT22;31504;51.716;9.184;2023-11-18T04:12:44;19.20;49.50
45803;DHT22;31504;51.716;9.184;2023-11-18T04:15:47;19.20;49.50
45803;DHT22;31504;51.716;9.184;2023-11-18T04:18:47;19.20;49.50
45803;DHT22;31504;51.716;9.184;2023-11-18T04:21:48;19.20;49.40
45803;DHT22;31504;51.716;9.184;2023-11-18T04:24:49;19.20;49.40
45803;DHT22;31504;51.716;9.184;2023-11-18T04:27:50;19.20;49.40
45803;DHT22;31504;51.716;9.184;2023-11-18T04:30:50;19.20;49.40
45803;DHT22;31504;51.716;9.184;2023-11-18T04:33:51;19.10;49.40
45803;DHT22;31504;51.716;9.184;2023-11-18T04:36:51;19.20;49.40
45803;DHT22;31504;51.716;9.184;2023-11-18T04:39:52;19.20;49.30
45803;DHT22;31504;51.716;9.184;2023-11-18T04:42:54;19.20;49.30
45803;DHT22;31504;51.716;9.184;2023-11-18T04:45:54;19.20;49.30
45803;DHT22;31504;51.716;9.184;2023-11-18T04:48:55;19.20;49.80
45803;DHT22;31504;51.716;9.184;2023-11-18T04:51:56;19.20;49.20
45803;DHT22;31504;51.716;9.184;2023-11-18T04:54:56;19.20;49.20
45803;DHT22;31504;51.716;9.184;2023-11-18T04:57:57;19.20;49.20
45803;DHT22;31504;51.716;9.184;2023-11-18T05:00:57;19.20;49.20
45803;DHT22;31504;51.716;9.184;2023-11-18T05:03:58;19.10;49.20
45803;DHT22;31504;51.716;9.184;2023-11-18T05:06:59;19.20;49.20
45803;DHT22;31504;51.716;9.184;2023-11-18T05:10:00;19.20;49.20
45803;DHT22;31504;51.716;9.184;2023-11-18T05:13:01;19.10;49.10
45803;DHT22;31504;51.716;9.184;2023-11-18T05:16:01;19.20;49.10
45803;DHT22;31504;51.716;9.184;2023-11-18T05:19:03;19.20;49.60
45803;DHT22;31504;51.716;9.184;2023-11-18T05:22:04;19.20;49.00
45803;DHT22;31504;51.716;9.184;2023-11-18T05:25:04;19.20;49.00
45803;DHT22;31504;51.716;9.184;2023-11-18T05:28:05;19.20;49.00
45803;DHT22;31504;51.716;9.184;2023-11-18T05:31:08;19.10;48.90
45803;DHT22;31504;51.716;9.184;2023-11-18T05:34:09;19.10;48.90
45803;DHT22;31504;51.716;9.184;2023-11-18T05:37:10;19.10;49.00
45803;DHT22;31504;51.716;9.184;2023-11-18T05:40:11;19.10;48.90
45803;DHT22;31504;51.716;9.184;2023-11-18T05:43:15;19.20;48.90
45803;DHT22;31504;51.716;9.184;2023-11-18T05:46:19;19.10;48.90
45803;DHT22;31504;51.716;9.184;2023-11-18T05:49:25;19.10;48.80
45803;DHT22;31504;51.716;9.184;2023-11-18T05:52:25;19.10;48.80
45803;DHT22;31504;51.716;9.184;2023-11-18T05:55:26;19.10;48.90
45803;DHT22;31504;51.716;9.184;2023-11-18T05:58:26;19.10;48.80
45803;DHT22;31504;51.716;9.184;2023-11-18T06:01:29;19.10;48.80
45803;DHT22;31504;51.716;9.184;2023-11-18T06:04:29;19.10;48.80
45803;DHT22;31504;51.716;9.184;2023-11-18T06:07:31;19.10;48.80
45803;DHT22;31504;51.716;9.184;2023-11-18T06:10:31;19.10;48.80
45803;DHT22;31504;51.716;9.184;2023-11-18T06:13:32;19.10;48.70
45803;DHT22;31504;51.716;9.184;2023-11-18T06:16:32;19.10;49.30
45803;DHT22;31504;51.716;9.184;2023-11-18T06:19:33;19.10;48.60
45803;DHT22;31504;51.716;9.184;2023-11-18T06:22:34;19.10;48.60
45803;DHT22;31504;51.716;9.184;2023-11-18T06:25:35;19.10;48.60
45803;DHT22;31504;51.716;9.184;2023-11-18T06:28:36;19.10;48.50
45803;DHT22;31504;51.716;9.184;2023-11-18T06:31:37;19.10;48.50
45803;DHT22;31504;51.716;9.184;2023-11-18T06:34:37;19.10;48.60
45803;DHT22;31504;51.716;9.184;2023-11-18T06:37:38;19.10;48.50
45803;DHT22;31504;51.716;9.184;2023-11-18T06:40:38;19.10;48.60
45803;DHT22;31504;51.716;9.184;2023-11-18T06:43:39;19.10;48.50
45803;DHT22;31504;51.716;9.184;2023-11-18T06:46:56;19.10;48.50
45803;DHT22;31504;51.716;9.184;2023-11-18T06:49:57;19.10;48.50
45803;DHT22;31504;51.716;9.184;2023-11-18T06:52:57;19.10;48.40
45803;DHT22;31504;51.716;9.184;2023-11-18T06:55:59;19.10;48.40
45803;DHT22;31504;51.716;9.184;2023-11-18T06:58:59;19.10;48.40
45803;DHT22;31504;51.716;9.184;2023-11-18T07:01:59;19.10;48.40
45803;DHT22;31504;51.716;9.184;2023-11-18T07:05:02;19.10;48.40
45803;DHT22;31504;51.716;9.184;2023-11-18T07:08:02;19.10;48.50
45803;DHT22;31504;51.716;9.184;2023-11-18T07:11:03;19.10;48.50
45803;DHT22;31504;51.716;9.184;2023-11-18T07:14:04;19.10;48.60
45803;DHT22;31504;51.716;9.184;2023-11-18T07:17:04;19.10;48.60
45803;DHT22;31504;51.716;9.184;2023-11-18T07:20:05;19.10;48.60
45803;DHT22;31504;51.716;9.184;2023-11-18T07:23:06;19.10;48.70
45803;DHT22;31504;51.716;9.184;2023-11-18T07:26:08;19.10;48.60
45803;DHT22;31504;51.716;9.184;2023-11-18T07:29:14;19.10;48.60
45803;DHT22;31504;51.716;9.184;2023-11-18T07:32:14;19.10;48.60
45803;DHT22;31504;51.716;9.184;2023-11-18T07:35:14;19.20;48.50
45803;DHT22;31504;51.716;9.184;2023-11-18T07:38:15;19.10;48.50
45803;DHT22;31504;51.716;9.184;2023-11-18T07:41:16;19.10;48.40
45803;DHT22;31504;51.716;9.184;2023-11-18T07:44:27;19.10;48.40
45803;DHT22;31504;51.716;9.184;2023-11-18T07:47:29;19.10;48.40
45803;DHT22;31504;51.716;9.184;2023-11-18T07:50:32;19.20;48.50
45803;DHT22;31504;51.716;9.184;2023-11-18T07:53:33;19.20;48.60
45803;DHT22;31504;51.716;9.184;2023-11-18T07:56:33;19.20;49.30
45803;DHT22;31504;51.716;9.184;2023-11-18T07:59:36;19.20;48.70
45803;DHT22;31504;51.716;9.184;2023-11-18T08:02:37;19.10;48.80
45803;DHT22;31504;51.716;9.184;2023-11-18T08:05:42;19.10;48.90
45803;DHT22;31504;51.716;9.184;2023-11-18T08:08:45;19.10;49.00
45803;DHT22;31504;51.716;9.184;2023-11-18T08:11:48;19.10;49.10
45803;DHT22;31504;51.716;9.184;2023-11-18T08:14:49;19.10;49.30
45803;DHT22;31504;51.716;9.184;2023-11-18T08:17:50;19.20;49.60
45803;DHT22;31504;51.716;9.184;2023-11-18T08:20:51;19.10;49.70
45803;DHT22;31504;51.716;9.184;2023-11-18T08:23:52;19.10;49.80
45803;DHT22;31504;51.716;9.184;2023-11-18T08:26:53;19.10;50.10
45803;DHT22;31504;51.716;9.184;2023-11-18T08:29:54;19.10;49.90
45803;DHT22;31504;51.716;9.184;2023-11-18T08:32:55;19.10;49.80
45803;DHT22;31504;51.716;9.184;2023-11-18T08:35:55;19.10;49.80
45803;DHT22;31504;51.716;9.184;2023-11-18T08:38:56;19.20;49.90
45803;DHT22;31504;51.716;9.184;2023-11-18T08:41:57;19.10;49.80
45803;DHT22;31504;51.716;9.184;2023-11-18T08:44:58;19.20;50.00
45803;DHT22;31504;51.716;9.184;2023-11-18T08:48:00;19.20;50.30
45803;DHT22;31504;51.716;9.184;2023-11-18T08:51:07;19.20;50.20
45803;DHT22;31504;51.716;9.184;2023-11-18T08:54:08;19.10;50.20
45803;DHT22;31504;51.716;9.184;2023-11-18T08:57:22;19.10;50.30
45803;DHT22;31504;51.716;9.184;2023-11-18T09:00:26;19.10;50.30
45803;DHT22;31504;51.716;9.184;2023-11-18T09:03:45;19.10;50.30
45803;DHT22;31504;51.716;9.184;2023-11-18T09:06:52;19.10;50.30
45803;DHT22;31504;51.716;9.184;2023-11-18T09:09:54;19.10;50.30
45803;DHT22;31504;51.716;9.184;2023-11-18T09:12:55;19.10;50.30
45803;DHT22;31504;51.716;9.184;2023-11-18T09:15:58;19.10;50.30
45803;DHT22;31504;51.716;9.184;2023-11-18T09:19:08;19.10;50.30
45803;DHT22;31504;51.716;9.184;2023-11-18T09:22:09;19.10;50.30
45803;DHT22;31504;51.716;9.184;2023-11-18T09:25:13;19.10;50.30
45803;DHT22;31504;51.716;9.184;2023-11-18T09:28:14;19.10;50.20
45803;DHT22;31504;51.716;9.184;2023-11-18T09:31:15;19.20;50.20
45803;DHT22;31504;51.716;9.184;2023-11-18T09:34:17;19.10;50.30
45803;DHT22;31504;51.716;9.184;2023-11-18T09:37:18;19.10;50.30
45803;DHT22;31504;51.716;9.184;2023-11-18T09:40:18;19.10;50.30
45803;DHT22;31504;51.716;9.184;2023-11-18T09:43:24;19.10;50.30
45803;DHT22;31504;51.716;9.184;2023-11-18T09:46:26;19.10;50.20
45803;DHT22;31504;51.716;9.184;2023-11-18T09:49:27;19.10;50.10
45803;DHT22;31504;51.716;9.184;2023-11-18T09:52:33;19.10;50.10
45803;DHT22;31504;51.716;9.184;2023-11-18T09:55:44;19.10;50.10
45803;DHT22;31504;51.716;9.184;2023-11-18T09:58:49;19.10;50.10
45803;DHT22;31504;51.716;9.184;2023-11-18T10:01:53;19.10;50.10
45803;DHT22;31504;51.716;9.184;2023-11-18T10:04:56;19.00;50.00
45803;DHT22;31504;51.716;9.184;2023-11-18T10:07:59;19.00;50.00
45803;DHT22;31504;51.716;9.184;2023-11-18T10:10:59;19.00;50.00
45803;DHT22;31504;51.716;9.184;2023-11-18T10:14:08;19.00;50.10
45803;DHT22;31504;51.716;9.184;2023-11-18T10:17:11;19.00;50.00
45803;DHT22;31504;51.716;9.184;2023-11-18T10:20:14;19.10;50.00
45803;DHT22;31504;51.716;9.184;2023-11-18T10:23:17;19.10;50.00
45803;DHT22;31504;51.716;9.184;2023-11-18T10:26:21;19.10;50.00
45803;DHT22;31504;51.716;9.184;2023-11-18T10:29:25;19.10;50.10
45803;DHT22;31504;51.716;9.184;2023-11-18T10:32:28;19.00;50.00
45803;DHT22;31504;51.716;9.184;2023-11-18T10:35:28;19.10;50.00
45803;DHT22;31504;51.716;9.184;2023-11-18T10:38:29;19.10;50.10
45803;DHT22;31504;51.716;9.184;2023-11-18T10:41:30;19.00;49.90
45803;DHT22;31504;51.716;9.184;2023-11-18T10:44:31;19.00;49.60
45803;DHT22;31504;51.716;9.184;2023-11-18T10:47:34;19.00;49.30
45803;DHT22;31504;51.716;9.184;2023-11-18T10:50:42;19.00;49.20
45803;DHT22;31504;51.716;9.184;2023-11-18T10:53:49;19.00;49.10
45803;DHT22;31504;51.716;9.184;2023-11-18T10:56:58;19.00;49.20
45803;DHT22;31504;51.716;9.184;2023-11-18T11:00:05;19.00;49.20
45803;DHT22;31504;51.716;9.184;2023-11-18T11:03:18;19.00;49.10
45803;DHT22;31504;51.716;9.184;2023-11-18T11:06:19;19.00;49.10
45803;DHT22;31504;51.716;9.184;2023-11-18T11:09:24;19.10;49.20
45803;DHT22;31504;51.716;9.184;2023-11-18T11:12:28;19.10;49.20
45803;DHT22;31504;51.716;9.184;2023-11-18T11:15:30;19.10;49.30
45803;DHT22;31504;51.716;9.184;2023-11-18T11:18:32;19.00;49.30
45803;DHT22;31504;51.716;9.184;2023-11-18T11:21:43;19.10;49.50
45803;DHT22;31504;51.716;9.184;2023-11-18T11:25:01;19.10;49.60
45803;DHT22;31504;51.716;9.184;2023-11-18T11:28:15;19.10;49.90
45803;DHT22;31504;51.716;9.184;2023-11-18T11:31:20;19.10;50.00
45803;DHT22;31504;51.716;9.184;2023-11-18T11:34:22;19.10;50.20
45803;DHT22;31504;51.716;9.184;2023-11-18T11:37:26;19.10;50.30
45803;DHT22;31504;51.716;9.184;2023-11-18T11:40:28;19.10;50.30
45803;DHT22;31504;51.716;9.184;2023-11-18T11:43:29;19.10;50.40
45803;DHT22;31504;51.716;9.184;2023-11-18T11:46:30;19.00;50.40
45803;DHT22;31504;51.716;9.184;2023-11-18T11:49:54;19.00;50.50
45803;DHT22;31504;51.716;9.184;2023-11-18T11:52:56;19.00;50.50
45803;DHT22;31504;51.716;9.184;2023-11-18T11:55:59;19.00;50.50
45803;DHT22;31504;51.716;9.184;2023-11-18T11:59:06;19.00;50.50
45803;DHT22;31504;51.716;9.184;2023-11-18T12:02:11;19.10;50.50
45803;DHT22;31504;51.716;9.184;2023-11-18T12:05:16;19.00;50.50
45803;DHT22;31504;51.716;9.184;2023-11-18T12:08:19;19.00;50.50
45803;DHT22;31504;51.716;9.184;2023-11-18T12:11:21;19.00;50.60
45803;DHT22;31504;51.716;9.184;2023-11-18T12:14:22;19.00;50.50
45803;DHT22;31504;51.716;9.184;2023-11-18T12:17:23;19.00;50.50
45803;DHT22;31504;51.716;9.184;2023-11-18T12:20:38;19.00;50.50
45803;DHT22;31504;51.716;9.184;2023-11-18T12:23:56;19.00;50.50
45803;DHT22;31504;51.716;9.184;2023-11-18T12:27:03;19.00;50.50
45803;DHT22;31504;51.716;9.184;2023-11-18T12:33:23;19.00;50.50
45803;DHT22;31504;51.716;9.184;2023-11-18T12:39:31;19.00;50.60
45803;DHT22;31504;51.716;9.184;2023-11-18T12:49:05;19.00;50.60
45803;DHT22;31504;51.716;9.184;2023-11-18T12:52:11;19.00;50.70
45803;DHT22;31504;51.716;9.184;2023-11-18T12:55:13;19.00;50.70
45803;DHT22;31504;51.716;9.184;2023-11-18T12:58:19;19.00;50.80
45803;DHT22;31504;51.716;9.184;2023-11-18T13:01:20;19.00;50.90
45803;DHT22;31504;51.716;9.184;2023-11-18T13:04:20;19.00;50.90
45803;DHT22;31504;51.716;9.184;2023-11-18T13:07:21;19.00;50.90
45803;DHT22;31504;51.716;9.184;2023-11-18T13:10:22;19.00;50.90
45803;DHT22;31504;51.716;9.184;2023-11-18T13:13:22;19.00;50.90
45803;DHT22;31504;51.716;9.184;2023-11-18T13:16:23;19.00;51.00
45803;DHT22;31504;51.716;9.184;2023-11-18T13:19:26;19.00;50.90
45803;DHT22;31504;51.716;9.184;2023-11-18T13:22:29;19.00;50.90
45803;DHT22;31504;51.716;9.184;2023-11-18T13:25:31;19.00;50.90
45803;DHT22;31504;51.716;9.184;2023-11-18T13:28:31;19.00;50.90
45803;DHT22;31504;51.716;9.184;2023-11-18T13:31:32;19.00;51.00
45803;DHT22;31504;51.716;9.184;2023-11-18T13:34:36;19.00;51.00
45803;DHT22;31504;51.716;9.184;2023-11-18T13:37:42;19.00;51.10
45803;DHT22;31504;51.716;9.184;2023-11-18T13:40:46;19.00;51.20
45803;DHT22;31504;51.716;9.184;2023-11-18T13:43:49;19.00;51.20
45803;DHT22;31504;51.716;9.184;2023-11-18T13:46:52;19.00;51.30
45803;DHT22;31504;51.716;9.184;2023-11-18T13:49:54;19.00;51.40
45803;DHT22;31504;51.716;9.184;2023-11-18T13:52:55;19.10;51.40
45803;DHT22;31504;51.716;9.184;2023-11-18T13:55:56;19.10;51.40
45803;DHT22;31504;51.716;9.184;2023-11-18T13:58:57;19.10;51.30
45803;DHT22;31504;51.716;9.184;2023-11-18T14:01:58;19.10;51.30
45803;DHT22;31504;51.716;9.184;2023-11-18T14:04:58;19.10;51.20
45803;DHT22;31504;51.716;9.184;2023-11-18T14:08:00;19.10;51.10
45803;DHT22;31504;51.716;9.184;2023-11-18T14:11:03;19.10;51.10
45803;DHT22;31504;51.716;9.184;2023-11-18T14:14:05;19.10;51.20
45803;DHT22;31504;51.716;9.184;2023-11-18T14:17:05;19.10;51.10
45803;DHT22;31504;51.716;9.184;2023-11-18T14:20:07;19.10;51.30
45803;DHT22;31504;51.716;9.184;2023-11-18T14:23:13;19.10;51.30
45803;DHT22;31504;51.716;9.184;2023-11-18T14:26:14;19.10;51.40
45803;DHT22;31504;51.716;9.184;2023-11-18T14:29:14;19.10;51.60
45803;DHT22;31504;51.716;9.184;2023-11-18T14:32:15;19.10;51.60
45803;DHT22;31504;51.716;9.184;2023-11-18T14:35:15;19.10;51.70
45803;DHT22;31504;51.716;9.184;2023-11-18T14:38:17;19.10;51.70
45803;DHT22;31504;51.716;9.184;2023-11-18T14:41:18;19.10;51.70
45803;DHT22;31504;51.716;9.184;2023-11-18T14:44:20;19.10;51.90
45803;DHT22;31504;51.716;9.184;2023-11-18T14:47:21;19.10;52.00
45803;DHT22;31504;51.716;9.184;2023-11-18T14:50:21;19.10;52.20
45803;DHT22;31504;51.716;9.184;2023-11-18T14:53:23;19.10;52.30
45803;DHT22;31504;51.716;9.184;2023-11-18T14:56:27;19.10;52.50
45803;DHT22;31504;51.716;9.184;2023-11-18T14:59:28;19.10;52.60
45803;DHT22;31504;51.716;9.184;2023-11-18T15:02:28;19.10;52.80
45803;DHT22;31504;51.716;9.184;2023-11-18T15:05:29;19.20;52.90
45803;DHT22;31504;51.716;9.184;2023-11-18T15:08:31;19.20;53.00
45803;DHT22;31504;51.716;9.184;2023-11-18T15:11:32;19.20;53.00
45803;DHT22;31504;51.716;9.184;2023-11-18T15:14:34;19.20;53.10
45803;DHT22;31504;51.716;9.184;2023-11-18T15:17:34;19.20;53.20
45803;DHT22;31504;51.716;9.184;2023-11-18T15:20:57;19.20;53.30
45803;DHT22;31504;51.716;9.184;2023-11-18T15:23:58;19.20;53.30
45803;DHT22;31504;51.716;9.184;2023-11-18T15:27:01;19.20;53.30
45803;DHT22;31504;51.716;9.184;2023-11-18T15:30:05;19.20;53.40
45803;DHT22;31504;51.716;9.184;2023-11-18T15:33:06;19.20;53.50
45803;DHT22;31504;51.716;9.184;2023-11-18T15:36:10;19.10;53.50
45803;DHT22;31504;51.716;9.184;2023-11-18T15:39:10;19.20;53.70
45803;DHT22;31504;51.716;9.184;2023-11-18T15:42:15;19.20;54.00
45803;DHT22;31504;51.716;9.184;2023-11-18T15:45:19;19.30;54.20
45803;DHT22;31504;51.716;9.184;2023-11-18T15:48:19;19.30;54.40
45803;DHT22;31504;51.716;9.184;2023-11-18T15:51:20;19.30;54.80
45803;DHT22;31504;51.716;9.184;2023-11-18T15:54:22;19.30;54.90
45803;DHT22;31504;51.716;9.184;2023-11-18T15:57:22;19.30;55.30
45803;DHT22;31504;51.716;9.184;2023-11-18T16:00:26;19.30;55.60
45803;DHT22;31504;51.716;9.184;2023-11-18T16:03:27;19.30;55.80
45803;DHT22;31504;51.716;9.184;2023-11-18T16:06:27;19.30;56.30
45803;DHT22;31504;51.716;9.184;2023-11-18T16:09:29;19.30;56.60
45803;DHT22;31504;51.716;9.184;2023-11-18T16:12:29;19.30;56.30
45803;DHT22;31504;51.716;9.184;2023-11-18T16:15:30;19.30;56.20
45803;DHT22;31504;51.716;9.184;2023-11-18T16:18:31;19.30;56.20
45803;DHT22;31504;51.716;9.184;2023-11-18T16:21:31;19.30;56.00
45803;DHT22;31504;51.716;9.184;2023-11-18T16:24:32;19.30;56.00
45803;DHT22;31504;51.716;9.184;2023-11-18T16:27:32;19.30;56.00
45803;DHT22;31504;51.716;9.184;2023-11-18T16:30:33;19.30;56.10
45803;DHT22;31504;51.716;9.184;2023-11-18T16:33:33;19.30;56.20
45803;DHT22;31504;51.716;9.184;2023-11-18T16:36:34;19.30;56.90
45803;DHT22;31504;51.716;9.184;2023-11-18T16:39:34;19.30;57.60
45803;DHT22;31504;51.716;9.184;2023-11-18T16:42:36;19.40;58.20
45803;DHT22;31504;51.716;9.184;2023-11-18T16:45:36;19.40;58.60
45803;DHT22;31504;51.716;9.184;2023-11-18T16:48:37;19.40;59.20
45803;DHT22;31504;51.716;9.184;2023-11-18T16:51:37;19.50;59.50
45803;DHT22;31504;51.716;9.184;2023-11-18T16:54:39;19.50;59.80
45803;DHT22;31504;51.716;9.184;2023-11-18T16:57:39;19.60;60.00
45803;DHT22;31504;51.716;9.184;2023-11-18T17:00:40;19.60;60.10
45803;DHT22;31504;51.716;9.184;2023-11-18T17:03:42;19.60;60.40
45803;DHT22;31504;51.716;9.184;2023-11-18T17:06:43;19.60;60.60
45803;DHT22;31504;51.716;9.184;2023-11-18T17:09:45;19.60;60.70
45803;DHT22;31504;51.716;9.184;2023-11-18T17:12:46;19.60;60.40
45803;DHT22;31504;51.716;9.184;2023-11-18T17:15:46;19.60;60.70
45803;DHT22;31504;51.716;9.184;2023-11-18T17:18:47;19.60;61.00
45803;DHT22;31504;51.716;9.184;2023-11-18T17:21:48;19.60;61.30
45803;DHT22;31504;51.716;9.184;2023-11-18T17:24:48;19.60;61.40
45803;DHT22;31504;51.716;9.184;2023-11-18T17:27:49;19.70;61.50
45803;DHT22;31504;51.716;9.184;2023-11-18T17:30:50;19.60;61.40
45803;DHT22;31504;51.716;9.184;2023-11-18T17:33:51;19.60;61.80
45803;DHT22;31504;51.716;9.184;2023-11-18T17:36:51;19.70;61.30
45803;DHT22;31504;51.716;9.184;2023-11-18T17:39:53;19.60;61.40
45803;DHT22;31504;51.716;9.184;2023-11-18T17:42:53;19.60;61.60
45803;DHT22;31504;51.716;9.184;2023-11-18T17:45:54;19.60;61.70
45803;DHT22;31504;51.716;9.184;2023-11-18T17:48:55;19.60;61.80
45803;DHT22;31504;51.716;9.184;2023-11-18T17:51:55;19.60;62.00
45803;DHT22;31504;51.716;9.184;2023-11-18T17:54:56;19.70;62.80
45803;DHT22;31504;51.716;9.184;2023-11-18T17:57:57;19.70;62.40
45803;DHT22;31504;51.716;9.184;2023-11-18T18:00:57;19.80;62.40
45803;DHT22;31504;51.716;9.184;2023-11-18T18:03:58;19.70;62.00
45803;DHT22;31504;51.716;9.184;2023-11-18T18:06:59;19.60;61.70
45803;DHT22;31504;51.716;9.184;2023-11-18T18:09:59;19.50;61.70
45803;DHT22;31504;51.716;9.184;2023-11-18T18:13:00;19.40;61.80
45803;DHT22;31504;51.716;9.184;2023-11-18T18:16:01;19.60;62.10
45803;DHT22;31504;51.716;9.184;2023-11-18T18:19:01;19.70;62.50
45803;DHT22;31504;51.716;9.184;2023-11-18T18:22:02;19.80;64.10
45803;DHT22;31504;51.716;9.184;2023-11-18T18:25:04;19.90;64.60
45803;DHT22;31504;51.716;9.184;2023-11-18T18:28:04;19.90;66.10
45803;DHT22;31504;51.716;9.184;2023-11-18T18:31:05;20.00;67.00
45803;DHT22;31504;51.716;9.184;2023-11-18T18:34:06;20.10;68.40
45803;DHT22;31504;51.716;9.184;2023-11-18T18:37:09;20.10;69.60
45803;DHT22;31504;51.716;9.184;2023-11-18T18:40:10;20.20;71.20
45803;DHT22;31504;51.716;9.184;2023-11-18T18:43:12;20.30;72.50
45803;DHT22;31504;51.716;9.184;2023-11-18T18:46:12;20.30;73.70
45803;DHT22;31504;51.716;9.184;2023-11-18T18:49:13;20.40;74.70
45803;DHT22;31504;51.716;9.184;2023-11-18T18:52:15;20.50;75.50
45803;DHT22;31504;51.716;9.184;2023-11-18T18:55:16;20.40;75.80
45803;DHT22;31504;51.716;9.184;2023-11-18T18:58:17;20.40;76.90
45803;DHT22;31504;51.716;9.184;2023-11-18T19:01:17;20.50;76.90
45803;DHT22;31504;51.716;9.184;2023-11-18T19:04:18;20.30;76.20
45803;DHT22;31504;51.716;9.184;2023-11-18T19:07:18;20.30;75.50
45803;DHT22;31504;51.716;9.184;2023-11-18T19:10:18;20.30;74.30
45803;DHT22;31504;51.716;9.184;2023-11-18T19:13:19;20.20;73.50
45803;DHT22;31504;51.716;9.184;2023-11-18T19:16:21;20.10;72.80
45803;DHT22;31504;51.716;9.184;2023-11-18T19:19:21;20.10;71.80
45803;DHT22;31504;51.716;9.184;2023-11-18T19:22:22;20.10;71.30